createdAt,value
2022-07-30T00:00:00.016Z,0.80
2022-07-30T00:03:01.957Z,0.32
2022-07-30T00:06:03.809Z,0.30
2022-07-30T00:09:05.698Z,0.30
2022-07-30T00:12:08.735Z,0.50
2022-07-30T00:15:10.581Z,0.57
2022-07-30T00:18:13.350Z,0.38
2022-07-30T00:21:34.743Z,0.52
2022-07-30T00:24:36.738Z,0.50
2022-07-30T00:27:40.114Z,0.50
2022-07-30T00:30:41.866Z,0.50
2022-07-30T00:33:43.870Z,0.55
2022-07-30T00:36:45.622Z,0.40
2022-07-30T00:39:47.598Z,0.40
2022-07-30T00:42:49.450Z,0.60
2022-07-30T00:45:51.398Z,0.68
2022-07-30T00:48:53.658Z,0.45
2022-07-30T00:54:57.047Z,0.63
2022-07-30T00:57:58.849Z,0.75
2022-07-30T01:01:00.950Z,0.57
2022-07-30T01:04:03.819Z,0.50
2022-07-30T01:07:05.898Z,0.40
2022-07-30T01:10:09.318Z,0.80
2022-07-30T01:13:11.283Z,0.47
2022-07-30T01:16:15.155Z,0.40
2022-07-30T01:19:40.709Z,0.60
2022-07-30T01:23:02.997Z,0.70
2022-07-30T01:26:08.023Z,0.65
2022-07-30T01:29:10.979Z,0.88
2022-07-30T01:32:13.713Z,0.30
2022-07-30T01:35:15.994Z,0.80
2022-07-30T01:38:21.923Z,0.73
2022-07-30T01:41:24.359Z,0.57
2022-07-30T01:44:26.980Z,0.60
2022-07-30T01:47:29.619Z,0.50
2022-07-30T01:50:31.942Z,0.60
2022-07-30T01:53:37.195Z,0.50
2022-07-30T01:56:39.457Z,0.57
2022-07-30T01:59:44.064Z,0.77
2022-07-30T02:02:46.153Z,0.80
2022-07-30T02:05:53.699Z,0.88
2022-07-30T02:08:56.895Z,0.68
2022-07-30T02:12:20.482Z,0.65
2022-07-30T02:15:22.097Z,0.68
2022-07-30T02:18:50.973Z,0.80
2022-07-30T02:22:01.711Z,0.63
2022-07-30T02:25:07.638Z,0.50
2022-07-30T02:28:12.374Z,0.43
2022-07-30T02:31:18.078Z,0.47
2022-07-30T02:34:22.889Z,0.65
2022-07-30T02:37:42.929Z,0.50
2022-07-30T02:40:46.741Z,0.40
2022-07-30T02:43:50.147Z,0.45
2022-07-30T02:46:54.844Z,0.50
2022-07-30T02:50:07.849Z,0.60
2022-07-30T02:53:11.144Z,0.40
2022-07-30T02:56:16.087Z,0.32
2022-07-30T02:59:19.426Z,0.50
2022-07-30T03:02:27.201Z,0.57
2022-07-30T03:05:31.877Z,0.88
2022-07-30T03:08:35.374Z,0.50
2022-07-30T03:11:37.267Z,0.60
2022-07-30T03:14:39.664Z,0.80
2022-07-30T03:20:50.087Z,1.10
2022-07-30T03:23:54.014Z,0.50
2022-07-30T03:26:56.851Z,0.50
2022-07-30T03:29:59.279Z,0.40
2022-07-30T03:36:03.619Z,0.70
2022-07-30T03:39:05.772Z,0.93
2022-07-30T03:42:08.249Z,0.82
2022-07-30T03:45:13.735Z,0.50
2022-07-30T03:48:15.765Z,0.90
2022-07-30T03:51:22.086Z,0.98
2022-07-30T03:54:23.902Z,0.60
2022-07-30T03:57:40.798Z,1.35
2022-07-30T04:03:45.648Z,0.77
2022-07-30T04:06:47.829Z,0.77
2022-07-30T04:09:49.626Z,0.70
2022-07-30T04:13:14.695Z,1.35
2022-07-30T04:16:39.336Z,1.08
2022-07-30T04:19:49.301Z,0.70
2022-07-30T04:22:51.609Z,1.08
2022-07-30T04:28:55.066Z,0.70
2022-07-30T04:31:57.908Z,0.68
2022-07-30T04:35:08.988Z,0.80
2022-07-30T04:38:36.592Z,0.50
2022-07-30T04:41:48.740Z,0.60
2022-07-30T04:45:14.593Z,0.40
2022-07-30T04:48:42.618Z,0.50
2022-07-30T04:51:51.119Z,0.73
2022-07-30T04:54:56.275Z,0.60
2022-07-30T04:57:58.142Z,0.60
2022-07-30T05:01:02.218Z,0.50
2022-07-30T05:04:07.376Z,0.43
2022-07-30T05:07:13.709Z,0.40
2022-07-30T05:10:15.528Z,0.80
2022-07-30T05:13:17.679Z,0.80
2022-07-30T05:16:19.487Z,0.50
2022-07-30T05:19:22.865Z,0.65
2022-07-30T05:22:27.619Z,0.40
2022-07-30T05:25:29.950Z,0.50
2022-07-30T05:28:42.277Z,0.25
2022-07-30T05:31:48.930Z,0.80
2022-07-30T05:34:51.468Z,0.70
2022-07-30T05:37:53.539Z,0.50
2022-07-30T05:40:55.304Z,0.60
2022-07-30T05:44:30.191Z,0.50
2022-07-30T05:47:31.883Z,0.45
2022-07-30T05:50:34.625Z,0.40
2022-07-30T05:53:36.340Z,0.30
2022-07-30T05:56:58.354Z,0.43
2022-07-30T06:00:10.612Z,0.10
2022-07-30T06:03:18.674Z,0.43
2022-07-30T06:06:42.944Z,0.17
2022-07-30T06:09:45.519Z,0.10
2022-07-30T06:12:48.244Z,0.30
2022-07-30T06:15:51.724Z,0.15
2022-07-30T06:18:53.444Z,0.17
2022-07-30T06:22:07.172Z,0.10
2022-07-30T06:25:14.802Z,0.10
2022-07-30T06:28:36.979Z,0.10
2022-07-30T06:31:41.616Z,0.20
2022-07-30T06:34:45.801Z,0.20
2022-07-30T06:38:05.564Z,0.30
2022-07-30T06:41:15.831Z,0.20
2022-07-30T06:44:28.342Z,0.10
2022-07-30T06:48:03.795Z,0.30
2022-07-30T06:51:07.042Z,0.10
2022-07-30T06:54:10.038Z,0.10
2022-07-30T06:57:16.840Z,0.10
2022-07-30T07:00:18.998Z,0.10
2022-07-30T07:03:21.595Z,0.38
2022-07-30T07:06:24.222Z,0.00
2022-07-30T07:09:25.995Z,0.00
2022-07-30T07:12:53.671Z,0.00
2022-07-30T07:15:57.319Z,0.10
2022-07-30T07:19:01.062Z,0.20
2022-07-30T07:22:02.939Z,0.00
2022-07-30T07:25:05.383Z,0.10
2022-07-30T07:28:12.697Z,0.10
2022-07-30T07:32:02.776Z,0.00
2022-07-30T07:34:39.674Z,0.10
2022-07-30T07:37:41.410Z,0.10
2022-07-30T07:40:47.359Z,0.00
2022-07-30T07:43:49.647Z,0.10
2022-07-30T07:46:59.759Z,0.00
2022-07-30T07:50:07.286Z,0.00
2022-07-30T07:53:09.154Z,0.00
2022-07-30T07:56:10.947Z,0.00
2022-07-30T07:59:14.574Z,0.00
2022-07-30T08:02:19.645Z,0.00
2022-07-30T08:06:00.794Z,0.00
2022-07-30T08:09:13.987Z,0.00
2022-07-30T08:12:34.771Z,0.00
2022-07-30T08:16:12.667Z,0.00
2022-07-30T08:19:33.053Z,0.00
2022-07-30T08:22:54.970Z,0.00
2022-07-30T08:26:00.831Z,0.00
2022-07-30T08:29:02.871Z,0.00
2022-07-30T08:32:05.326Z,0.08
2022-07-30T08:35:09.799Z,0.20
2022-07-30T08:38:13.538Z,0.10
2022-07-30T08:41:19.218Z,0.00
2022-07-30T08:44:21.932Z,0.00
2022-07-30T08:47:32.649Z,0.00
2022-07-30T08:50:46.657Z,0.10
2022-07-30T08:54:07.051Z,0.00
2022-07-30T08:57:10.179Z,0.13
2022-07-30T09:00:14.225Z,0.00
2022-07-30T09:03:16.682Z,0.00
2022-07-30T09:06:19.570Z,0.03
2022-07-30T09:12:44.910Z,0.00
2022-07-30T09:15:46.829Z,0.17
2022-07-30T09:18:49.265Z,0.00
2022-07-30T09:21:58.294Z,0.00
2022-07-30T09:25:11.491Z,0.03
2022-07-30T09:28:41.988Z,0.00
2022-07-30T09:32:02.154Z,0.10
2022-07-30T09:35:22.947Z,0.10
2022-07-30T09:38:51.954Z,0.30
2022-07-30T09:42:28.077Z,0.30
2022-07-30T09:45:57.159Z,0.65
2022-07-30T09:49:32.853Z,0.40
2022-07-30T09:52:35.448Z,0.32
2022-07-30T09:55:41.254Z,0.35
2022-07-30T09:58:45.385Z,0.38
2022-07-30T10:02:01.139Z,0.30
2022-07-30T10:05:25.021Z,0.35
2022-07-30T10:08:39.003Z,0.40
2022-07-30T10:11:41.407Z,0.40
2022-07-30T10:14:46.462Z,0.30
2022-07-30T10:17:50.714Z,0.50
2022-07-30T10:24:37.707Z,0.35
2022-07-30T10:27:57.679Z,0.32
2022-07-30T10:31:08.381Z,0.45
2022-07-30T10:34:30.267Z,0.40
2022-07-30T10:37:50.370Z,0.50
2022-07-30T10:41:16.273Z,0.55
2022-07-30T10:44:29.810Z,0.30
2022-07-30T10:47:44.801Z,0.40
2022-07-30T10:50:52.595Z,0.50
2022-07-30T10:53:54.503Z,0.50
2022-07-30T10:57:22.974Z,0.50
2022-07-30T11:00:35.830Z,0.38
2022-07-30T11:03:45.185Z,0.50
2022-07-30T11:06:47.229Z,0.32
2022-07-30T11:10:09.227Z,0.40
2022-07-30T11:13:11.511Z,0.50
2022-07-30T11:16:13.299Z,0.40
2022-07-30T11:19:55.086Z,0.40
2022-07-30T11:22:44.855Z,0.10
2022-07-30T11:25:51.102Z,0.50
2022-07-30T11:28:53.946Z,0.40
2022-07-30T11:32:00.212Z,0.20
2022-07-30T11:35:25.744Z,0.10
2022-07-30T11:39:11.741Z,0.13
2022-07-30T11:42:33.991Z,0.20
2022-07-30T11:48:39.698Z,0.10
2022-07-30T11:51:42.550Z,0.20
2022-07-30T11:54:54.814Z,0.10
2022-07-30T12:01:09.426Z,0.00
2022-07-30T12:04:11.459Z,1.08
2022-07-30T12:07:13.197Z,0.60
2022-07-30T12:10:25.593Z,0.30
2022-07-30T12:13:43.496Z,0.30
2022-07-30T12:16:52.052Z,0.15
2022-07-30T12:19:53.767Z,0.10
2022-07-30T12:22:56.927Z,0.00
2022-07-30T12:25:58.809Z,0.10
2022-07-30T12:29:06.664Z,0.10
2022-07-30T12:32:08.499Z,0.00
2022-07-30T12:35:11.103Z,0.00
2022-07-30T12:38:13.607Z,0.00
2022-07-30T12:41:15.350Z,0.00
2022-07-30T12:44:46.280Z,0.10
2022-07-30T12:47:50.126Z,0.00
2022-07-30T12:51:07.622Z,0.22
2022-07-30T12:54:19.546Z,0.00
2022-07-30T13:00:24.813Z,0.00
2022-07-30T13:03:28.228Z,0.03
2022-07-30T13:06:29.977Z,0.10
2022-07-30T13:09:31.694Z,0.00
2022-07-30T13:12:33.447Z,0.00
2022-07-30T13:15:35.157Z,0.10
2022-07-30T13:18:39.225Z,0.00
2022-07-30T13:21:49.503Z,0.00
2022-07-30T13:24:51.936Z,0.10
2022-07-30T13:27:53.648Z,0.00
2022-07-30T13:30:56.801Z,0.00
2022-07-30T13:33:59.113Z,0.03
2022-07-30T13:40:03.371Z,0.00
2022-07-30T13:43:05.197Z,0.28
2022-07-30T13:46:06.979Z,0.10
2022-07-30T13:49:08.798Z,0.05
2022-07-30T13:58:14.779Z,0.10
2022-07-30T14:01:17.742Z,0.08
2022-07-30T14:04:19.697Z,0.20
2022-07-30T14:07:21.408Z,0.10
2022-07-30T14:10:23.680Z,0.10
2022-07-30T14:13:25.518Z,0.10
2022-07-30T14:19:47.371Z,0.10
2022-07-30T14:22:49.111Z,0.10
2022-07-30T14:25:50.791Z,0.10
2022-07-30T14:28:52.552Z,0.10
2022-07-30T14:34:57.004Z,0.10
2022-07-30T14:37:58.810Z,0.08
2022-07-30T14:44:02.728Z,0.25
2022-07-30T14:47:05.177Z,0.10
2022-07-30T14:50:09.705Z,0.00
2022-07-30T14:53:11.539Z,0.00
2022-07-30T14:56:13.720Z,0.00
2022-07-30T14:59:16.875Z,0.05
2022-07-30T15:02:18.647Z,0.03
2022-07-30T15:05:20.441Z,0.00
2022-07-30T15:08:22.154Z,0.20
2022-07-30T15:11:24.445Z,0.03
2022-07-30T15:14:28.414Z,0.00
2022-07-30T15:17:30.325Z,0.00
2022-07-30T15:20:32.102Z,0.20
2022-07-30T15:23:33.994Z,0.10
2022-07-30T15:26:35.774Z,0.20
2022-07-30T15:29:37.627Z,0.10
2022-07-30T15:32:40.000Z,0.00
2022-07-30T15:35:42.331Z,0.10
2022-07-30T15:38:44.627Z,0.10
2022-07-30T15:41:47.931Z,0.03
2022-07-30T15:45:15.498Z,0.03
2022-07-30T15:48:15.622Z,0.00
2022-07-30T15:51:27.840Z,0.13
2022-07-30T15:54:29.634Z,0.10
2022-07-30T15:57:31.706Z,0.08
2022-07-30T16:00:33.622Z,0.00
2022-07-30T16:03:38.927Z,0.10
2022-07-30T16:06:41.744Z,0.00
2022-07-30T16:09:43.478Z,0.08
2022-07-30T16:12:45.240Z,0.00
2022-07-30T16:15:46.960Z,0.10
2022-07-30T16:18:48.694Z,0.10
2022-07-30T16:21:50.466Z,0.10
2022-07-30T16:24:52.616Z,0.65
2022-07-30T16:30:56.010Z,0.10
2022-07-30T16:33:58.003Z,0.00
2022-07-30T16:37:00.519Z,0.00
2022-07-30T16:40:06.591Z,0.00
2022-07-30T16:43:08.313Z,0.00
2022-07-30T16:46:11.054Z,0.00
2022-07-30T16:49:12.924Z,0.00
2022-07-30T16:52:15.954Z,0.00
2022-07-30T16:55:17.719Z,0.00
2022-07-30T16:58:19.479Z,0.00
2022-07-30T17:01:24.003Z,0.00
2022-07-30T17:04:25.763Z,0.00
2022-07-30T17:07:28.901Z,0.00
2022-07-30T17:10:30.677Z,0.00
2022-07-30T17:13:34.296Z,0.00
2022-07-30T17:16:36.022Z,0.00
2022-07-30T17:19:39.214Z,0.00
2022-07-30T17:22:43.152Z,0.00
2022-07-30T17:25:45.109Z,0.00
2022-07-30T17:28:46.848Z,0.00
2022-07-30T17:31:49.069Z,0.00
2022-07-30T17:34:50.847Z,0.10
2022-07-30T17:37:52.878Z,0.00
2022-07-30T17:43:56.794Z,0.00
2022-07-30T17:46:58.531Z,0.00
2022-07-30T17:50:00.326Z,0.00
2022-07-30T17:53:03.691Z,0.00
2022-07-30T17:56:05.958Z,0.00
2022-07-30T17:59:13.837Z,0.00
2022-07-30T18:02:15.977Z,0.00
2022-07-30T18:05:18.582Z,0.00
2022-07-30T18:08:20.312Z,0.00
2022-07-30T18:11:23.758Z,0.00
2022-07-30T18:14:25.806Z,0.10
2022-07-30T18:20:30.930Z,0.20
2022-07-30T18:23:34.930Z,0.80
2022-07-30T18:26:38.620Z,1.25
2022-07-30T18:29:40.865Z,0.43
2022-07-30T18:32:43.377Z,0.10
2022-07-30T18:35:45.202Z,0.20
2022-07-30T18:38:49.838Z,0.00
2022-07-30T18:41:53.274Z,0.00
2022-07-30T18:47:57.366Z,0.05
2022-07-30T18:50:59.219Z,0.10
2022-07-30T18:54:01.100Z,0.03
2022-07-30T18:57:03.682Z,0.00
2022-07-30T19:00:08.733Z,0.10
2022-07-30T19:03:17.387Z,0.00
2022-07-30T19:06:21.476Z,0.13
2022-07-30T19:09:23.389Z,0.00
2022-07-30T19:12:27.541Z,0.00
2022-07-30T19:15:29.733Z,0.08
2022-07-30T19:21:33.409Z,0.00
2022-07-30T19:24:35.174Z,0.00
2022-07-30T19:27:37.096Z,0.00
2022-07-30T19:30:39.274Z,0.00
2022-07-30T19:36:44.594Z,0.00
2022-07-30T19:40:05.490Z,0.00
2022-07-30T19:43:10.057Z,0.00
2022-07-30T19:46:12.114Z,0.00
2022-07-30T19:49:13.908Z,0.00
2022-07-30T19:52:23.621Z,0.00
2022-07-30T19:55:34.970Z,0.00
2022-07-30T19:58:38.049Z,0.10
2022-07-30T20:01:43.236Z,0.10
2022-07-30T20:04:45.323Z,0.17
2022-07-30T20:10:50.844Z,0.20
2022-07-30T20:13:52.557Z,0.00
2022-07-30T20:16:54.279Z,0.10
2022-07-30T20:19:57.992Z,0.05
2022-07-30T20:23:01.199Z,0.10
2022-07-30T20:26:07.479Z,0.10
2022-07-30T20:29:19.041Z,0.00
2022-07-30T20:32:23.475Z,0.55
2022-07-30T20:35:26.585Z,0.00
2022-07-30T20:38:29.550Z,0.20
2022-07-30T20:41:31.486Z,0.10
2022-07-30T20:44:43.669Z,0.10
2022-07-30T20:47:55.385Z,0.10
2022-07-30T20:50:57.251Z,0.08
2022-07-30T20:53:59.235Z,0.10
2022-07-30T20:57:01.103Z,0.20
2022-07-30T21:00:04.339Z,0.13
2022-07-30T21:03:13.734Z,0.10
2022-07-30T21:06:16.489Z,0.20
2022-07-30T21:09:18.482Z,0.10
2022-07-30T21:12:32.545Z,0.40
2022-07-30T21:15:36.190Z,0.30
2022-07-30T21:18:50.330Z,0.35
2022-07-30T21:21:54.305Z,0.47
2022-07-30T21:24:56.123Z,0.08
2022-07-30T21:27:58.416Z,0.30
2022-07-30T21:31:01.717Z,0.22
2022-07-30T21:34:03.879Z,0.30
2022-07-30T21:37:05.719Z,0.63
2022-07-30T21:40:09.188Z,0.30
2022-07-30T21:43:11.423Z,0.40
2022-07-30T21:46:13.727Z,0.20
2022-07-30T21:49:15.537Z,0.63
2022-07-30T21:52:17.881Z,0.20
2022-07-30T21:55:21.490Z,0.30
2022-07-30T21:58:26.051Z,0.30
2022-07-30T22:01:28.314Z,0.30
2022-07-30T22:04:34.747Z,0.20
2022-07-30T22:07:36.919Z,0.38
2022-07-30T22:10:41.360Z,0.25
2022-07-30T22:13:53.464Z,0.25
2022-07-30T22:16:56.491Z,0.17
2022-07-30T22:23:02.475Z,0.52
2022-07-30T22:26:06.334Z,0.52
2022-07-30T22:29:08.159Z,0.70
2022-07-30T22:32:11.909Z,0.38
2022-07-30T22:35:31.980Z,0.60
2022-07-30T22:38:35.721Z,0.40
2022-07-30T22:41:37.498Z,0.40
2022-07-30T22:44:39.988Z,0.40
2022-07-30T22:47:50.693Z,0.40
2022-07-30T22:50:55.994Z,0.68
2022-07-30T22:54:12.387Z,0.50
2022-07-30T22:57:14.826Z,0.30
2022-07-30T23:00:27.328Z,0.47
2022-07-30T23:03:30.137Z,0.50
2022-07-30T23:06:33.207Z,0.30
2022-07-30T23:09:49.233Z,0.40
2022-07-30T23:12:53.923Z,0.40
2022-07-30T23:18:57.363Z,0.50
2022-07-30T23:21:59.080Z,0.50
2022-07-30T23:25:00.949Z,0.40
2022-07-30T23:28:02.684Z,0.40
2022-07-30T23:31:05.018Z,0.22
2022-07-30T23:37:11.754Z,0.30
2022-07-30T23:40:19.582Z,0.35
2022-07-30T23:43:21.325Z,0.60
2022-07-30T23:46:23.037Z,0.40
2022-07-30T23:49:24.821Z,0.50
2022-07-30T23:52:26.590Z,0.38
2022-07-30T23:55:29.232Z,0.40
2022-07-30T23:58:30.982Z,0.40
